createdAt,value
2022-10-31T00:00:44.771Z,13.09
2022-10-31T00:03:11.487Z,13.08
2022-10-31T00:05:42.038Z,13.08
2022-10-31T00:08:08.501Z,13.06
2022-10-31T00:10:37.723Z,13.02
2022-10-31T00:13:04.194Z,13.02
2022-10-31T00:15:30.689Z,13.00
2022-10-31T00:17:57.356Z,12.96
2022-10-31T00:20:23.997Z,12.99
2022-10-31T00:22:50.651Z,12.95
2022-10-31T00:25:17.103Z,13.05
2022-10-31T00:27:43.563Z,13.04
2022-10-31T00:30:11.642Z,13.17
2022-10-31T00:32:38.152Z,13.10
2022-10-31T00:35:05.071Z,13.08
2022-10-31T00:37:31.608Z,13.09
2022-10-31T00:39:58.019Z,13.15
2022-10-31T00:42:24.657Z,13.15
2022-10-31T00:44:51.242Z,13.12
2022-10-31T00:47:17.705Z,13.10
2022-10-31T00:49:45.560Z,13.19
2022-10-31T00:52:12.309Z,13.14
2022-10-31T00:54:38.829Z,13.14
2022-10-31T00:57:05.525Z,13.13
2022-10-31T00:59:32.190Z,13.08
2022-10-31T01:01:58.930Z,13.07
2022-10-31T01:04:26.040Z,13.07
2022-10-31T01:06:52.567Z,13.14
2022-10-31T01:09:19.418Z,13.13
2022-10-31T01:11:46.209Z,13.10
2022-10-31T01:14:12.739Z,13.09
2022-10-31T01:16:39.232Z,13.07
2022-10-31T01:19:05.699Z,13.13
2022-10-31T01:21:33.275Z,13.09
2022-10-31T01:24:00.160Z,13.10
2022-10-31T01:26:31.648Z,13.20
2022-10-31T01:29:03.789Z,13.20
2022-10-31T01:31:36.325Z,13.21
2022-10-31T01:34:03.292Z,13.19
2022-10-31T01:36:35.538Z,13.31
2022-10-31T01:39:06.062Z,13.19
2022-10-31T01:41:35.986Z,13.13
2022-10-31T01:44:24.436Z,13.09
2022-10-31T01:47:18.236Z,13.10
2022-10-31T01:49:49.758Z,13.05
2022-10-31T01:52:45.309Z,13.07
2022-10-31T01:55:30.366Z,13.05
2022-10-31T01:58:03.442Z,13.08
2022-10-31T02:00:30.429Z,13.09
2022-10-31T02:02:57.578Z,13.02
2022-10-31T02:05:29.092Z,13.03
2022-10-31T02:08:20.695Z,12.96
2022-10-31T02:10:50.848Z,12.92
2022-10-31T02:13:18.418Z,12.88
2022-10-31T02:15:52.798Z,12.90
2022-10-31T02:18:20.862Z,12.81
2022-10-31T02:20:51.729Z,12.82
2022-10-31T02:23:40.431Z,12.79
2022-10-31T02:26:28.789Z,12.79
2022-10-31T02:29:18.079Z,12.75
2022-10-31T02:31:59.359Z,12.75
2022-10-31T02:34:28.895Z,12.73
2022-10-31T02:37:14.639Z,12.68
2022-10-31T02:39:59.805Z,12.66
2022-10-31T02:43:09.307Z,12.63
2022-10-31T02:45:57.214Z,12.63
2022-10-31T02:48:29.142Z,12.57
2022-10-31T02:51:04.264Z,12.56
2022-10-31T02:53:38.555Z,12.56
2022-10-31T02:56:17.686Z,12.53
2022-10-31T02:59:00.553Z,12.50
2022-10-31T03:01:40.595Z,12.46
2022-10-31T03:04:45.395Z,12.42
2022-10-31T03:07:40.096Z,12.38
2022-10-31T03:10:34.560Z,12.35
2022-10-31T03:13:09.893Z,12.31
2022-10-31T03:15:41.108Z,12.31
2022-10-31T03:18:12.966Z,12.24
2022-10-31T03:21:06.926Z,12.19
2022-10-31T03:23:37.633Z,12.17
2022-10-31T03:26:06.951Z,12.11
2022-10-31T03:28:45.926Z,12.09
2022-10-31T03:31:17.665Z,12.09
2022-10-31T03:33:47.239Z,12.09
2022-10-31T03:36:16.639Z,12.03
2022-10-31T03:38:46.043Z,12.02
2022-10-31T03:41:21.101Z,11.94
2022-10-31T03:43:56.535Z,11.90
2022-10-31T03:46:25.262Z,11.89
2022-10-31T03:48:54.527Z,11.84
2022-10-31T03:51:32.883Z,11.78
2022-10-31T03:54:24.147Z,11.73
2022-10-31T03:57:33.968Z,11.69
2022-10-31T04:00:09.956Z,11.70
2022-10-31T04:03:08.264Z,11.75
2022-10-31T04:05:39.068Z,11.73
2022-10-31T04:08:10.061Z,11.74
2022-10-31T04:10:39.023Z,11.72
2022-10-31T04:13:11.300Z,11.65
2022-10-31T04:16:00.950Z,11.64
2022-10-31T04:18:29.413Z,11.63
2022-10-31T04:21:08.028Z,11.63
2022-10-31T04:23:36.140Z,11.64
2022-10-31T04:26:12.949Z,11.61
2022-10-31T04:28:39.534Z,11.53
2022-10-31T04:31:06.280Z,11.47
2022-10-31T04:33:38.503Z,11.45
2022-10-31T04:36:06.317Z,11.39
2022-10-31T04:38:33.221Z,11.39
2022-10-31T04:41:00.172Z,11.36
2022-10-31T04:43:46.662Z,11.38
2022-10-31T04:46:14.012Z,11.37
2022-10-31T04:48:40.497Z,11.30
2022-10-31T04:51:08.335Z,11.23
2022-10-31T04:53:34.965Z,11.24
2022-10-31T04:56:21.895Z,11.18
2022-10-31T04:58:53.344Z,11.18
2022-10-31T05:01:20.316Z,11.16
2022-10-31T05:03:49.220Z,11.17
2022-10-31T05:06:17.490Z,11.14
2022-10-31T05:08:43.981Z,11.10
2022-10-31T05:11:12.099Z,11.07
2022-10-31T05:13:39.555Z,11.08
2022-10-31T05:16:11.920Z,11.04
2022-10-31T05:18:50.984Z,11.03
2022-10-31T05:21:26.491Z,11.00
2022-10-31T05:23:58.159Z,11.06
2022-10-31T05:26:25.241Z,11.01
2022-10-31T05:28:53.935Z,11.04
2022-10-31T05:31:20.649Z,11.04
2022-10-31T05:33:48.819Z,11.01
2022-10-31T05:36:34.031Z,11.00
2022-10-31T05:39:03.776Z,10.93
2022-10-31T05:41:41.717Z,10.86
2022-10-31T05:44:16.799Z,10.84
2022-10-31T05:46:59.337Z,10.80
2022-10-31T05:49:44.356Z,10.79
2022-10-31T05:52:29.447Z,10.72
2022-10-31T05:55:04.433Z,10.68
2022-10-31T05:57:33.384Z,10.68
2022-10-31T06:00:00.096Z,10.68
2022-10-31T06:02:35.275Z,10.64
2022-10-31T06:05:29.744Z,10.55
2022-10-31T06:07:57.646Z,10.53
2022-10-31T06:10:25.127Z,10.49
2022-10-31T06:12:54.705Z,10.48
2022-10-31T06:15:33.973Z,10.45
2022-10-31T06:18:06.155Z,10.47
2022-10-31T06:20:45.279Z,10.46
2022-10-31T06:23:11.867Z,10.43
2022-10-31T06:25:40.377Z,10.38
2022-10-31T06:28:10.654Z,10.42
2022-10-31T06:30:57.361Z,10.40
2022-10-31T06:33:24.083Z,10.36
2022-10-31T06:35:56.503Z,10.37
2022-10-31T06:38:23.812Z,10.37
2022-10-31T06:40:50.467Z,10.37
2022-10-31T06:43:23.218Z,10.43
2022-10-31T06:45:56.587Z,10.45
2022-10-31T06:48:26.885Z,10.44
2022-10-31T06:51:15.126Z,10.45
2022-10-31T06:53:42.068Z,10.53
2022-10-31T06:56:11.136Z,10.55
2022-10-31T06:58:43.013Z,10.63
2022-10-31T07:01:11.549Z,10.63
2022-10-31T07:03:39.180Z,10.72
2022-10-31T07:06:06.207Z,10.79
2022-10-31T07:08:33.279Z,10.84
2022-10-31T07:10:59.853Z,10.82
2022-10-31T07:13:28.896Z,10.93
2022-10-31T07:16:07.611Z,10.91
2022-10-31T07:18:35.964Z,10.92
2022-10-31T07:21:03.005Z,10.96
2022-10-31T07:23:29.513Z,10.97
2022-10-31T07:26:16.088Z,10.97
2022-10-31T07:28:48.068Z,10.95
2022-10-31T07:31:16.121Z,10.97
2022-10-31T07:33:42.612Z,10.99
2022-10-31T07:36:31.639Z,11.04
2022-10-31T07:39:03.255Z,11.11
2022-10-31T07:41:31.520Z,11.17
2022-10-31T07:43:58.078Z,11.22
2022-10-31T07:46:43.317Z,11.23
2022-10-31T07:49:28.231Z,11.26
2022-10-31T07:52:13.556Z,11.27
2022-10-31T07:54:58.836Z,11.32
2022-10-31T07:57:25.598Z,11.39
2022-10-31T07:59:53.003Z,11.46
2022-10-31T08:02:20.077Z,11.54
2022-10-31T08:04:50.277Z,11.60
2022-10-31T08:07:38.221Z,11.70
2022-10-31T08:10:07.551Z,11.79
2022-10-31T08:12:35.112Z,11.89
2022-10-31T08:15:04.299Z,11.93
2022-10-31T08:17:30.787Z,12.00
2022-10-31T08:19:59.870Z,12.07
2022-10-31T08:22:38.569Z,12.14
2022-10-31T08:25:08.027Z,12.23
2022-10-31T08:27:36.172Z,12.33
2022-10-31T08:30:03.201Z,12.45
2022-10-31T08:32:31.554Z,12.54
2022-10-31T08:34:58.059Z,12.72
2022-10-31T08:37:58.331Z,12.79
2022-10-31T08:40:28.860Z,12.91
2022-10-31T08:43:00.103Z,13.00
2022-10-31T08:45:28.514Z,13.13
2022-10-31T08:48:03.838Z,13.26
2022-10-31T08:50:32.967Z,13.40
2022-10-31T08:53:17.872Z,13.53
2022-10-31T08:55:48.178Z,13.60
2022-10-31T08:58:26.044Z,13.71
2022-10-31T09:01:00.730Z,13.86
2022-10-31T09:03:31.377Z,13.85
2022-10-31T09:06:02.597Z,13.95
2022-10-31T09:08:33.511Z,14.05
2022-10-31T09:11:03.407Z,14.15
2022-10-31T09:14:05.100Z,14.23
2022-10-31T09:16:50.300Z,14.29
2022-10-31T09:19:22.265Z,14.34
2022-10-31T09:21:48.853Z,14.36
2022-10-31T09:24:16.014Z,14.37
2022-10-31T09:26:42.973Z,14.38
2022-10-31T09:29:19.373Z,14.42
2022-10-31T09:31:50.673Z,14.45
2022-10-31T09:34:28.551Z,14.42
2022-10-31T09:37:02.874Z,14.62
2022-10-31T09:39:29.416Z,14.72
2022-10-31T09:42:13.693Z,14.59
2022-10-31T09:45:09.657Z,14.51
2022-10-31T09:48:08.071Z,14.55
2022-10-31T09:50:52.920Z,14.64
2022-10-31T09:53:58.729Z,14.68
2022-10-31T09:56:28.345Z,14.65
2022-10-31T09:59:02.321Z,14.65
2022-10-31T10:01:44.495Z,14.79
2022-10-31T10:04:24.291Z,14.68
2022-10-31T10:07:25.662Z,14.68
2022-10-31T10:10:24.148Z,14.77
2022-10-31T10:13:42.896Z,14.91
2022-10-31T10:16:41.872Z,14.94
2022-10-31T10:19:33.931Z,14.99
2022-10-31T10:22:09.387Z,15.03
2022-10-31T10:24:38.865Z,15.07
2022-10-31T10:27:30.061Z,15.04
2022-10-31T10:30:02.384Z,15.16
2022-10-31T10:32:32.311Z,15.15
2022-10-31T10:35:15.869Z,15.07
2022-10-31T10:37:47.069Z,15.07
2022-10-31T10:40:19.194Z,15.17
2022-10-31T10:43:15.170Z,15.21
2022-10-31T10:46:06.537Z,15.17
2022-10-31T10:48:42.955Z,15.21
2022-10-31T10:51:31.908Z,15.30
2022-10-31T10:54:19.503Z,15.43
2022-10-31T10:57:19.023Z,15.40
2022-10-31T10:59:46.841Z,15.42
2022-10-31T11:02:22.862Z,15.48
2022-10-31T11:04:54.021Z,15.49
2022-10-31T11:07:20.941Z,15.54
2022-10-31T11:09:49.333Z,15.79
2022-10-31T11:12:30.115Z,15.73
2022-10-31T11:15:04.759Z,15.60
2022-10-31T11:17:37.734Z,15.62
2022-10-31T11:20:26.720Z,15.63
2022-10-31T11:23:06.659Z,15.68
2022-10-31T11:25:33.479Z,15.62
2022-10-31T11:28:09.910Z,15.68
2022-10-31T11:30:45.301Z,15.64
2022-10-31T11:33:40.025Z,15.89
2022-10-31T11:36:24.094Z,15.81
2022-10-31T11:38:52.289Z,15.76
2022-10-31T11:41:26.073Z,15.85
2022-10-31T11:44:00.851Z,15.88
2022-10-31T11:46:35.687Z,15.97
2022-10-31T11:49:05.324Z,15.99
2022-10-31T11:51:34.439Z,15.99
2022-10-31T11:54:03.584Z,16.05
2022-10-31T11:56:41.603Z,16.03
2022-10-31T11:59:34.512Z,16.11
2022-10-31T12:02:02.733Z,16.14
2022-10-31T12:04:39.858Z,16.06
2022-10-31T12:07:06.438Z,16.13
2022-10-31T12:09:38.817Z,16.11
2022-10-31T12:12:41.377Z,16.11
2022-10-31T12:15:27.134Z,16.20
2022-10-31T12:18:19.349Z,16.16
2022-10-31T12:21:13.243Z,16.13
2022-10-31T12:23:50.202Z,16.18
2022-10-31T12:26:28.097Z,16.17
2022-10-31T12:29:11.763Z,16.26
2022-10-31T12:31:50.662Z,16.25
2022-10-31T12:34:38.416Z,16.24
2022-10-31T12:37:18.255Z,16.28
2022-10-31T12:39:55.207Z,16.33
2022-10-31T12:42:52.444Z,16.42
2022-10-31T12:45:59.577Z,16.51
2022-10-31T12:48:45.933Z,16.59
2022-10-31T12:51:38.923Z,16.53
2022-10-31T12:54:30.437Z,16.59
2022-10-31T12:57:13.837Z,16.51
2022-10-31T12:59:46.280Z,16.55
2022-10-31T13:02:32.018Z,16.64
2022-10-31T13:05:04.610Z,16.57
2022-10-31T13:07:38.770Z,16.48
2022-10-31T13:10:23.812Z,16.44
2022-10-31T13:12:55.172Z,16.38
2022-10-31T13:15:24.921Z,16.25
2022-10-31T13:17:58.483Z,16.46
2022-10-31T13:20:32.801Z,16.44
2022-10-31T13:23:44.693Z,16.34
2022-10-31T13:26:13.067Z,16.37
2022-10-31T13:29:14.101Z,16.42
2022-10-31T13:31:42.532Z,16.34
2022-10-31T13:34:23.088Z,16.43
2022-10-31T13:37:02.842Z,16.35
2022-10-31T13:39:47.768Z,16.48
2022-10-31T13:42:20.701Z,16.37
2022-10-31T13:44:47.305Z,16.33
2022-10-31T13:47:31.710Z,16.29
2022-10-31T13:50:21.469Z,16.29
2022-10-31T13:52:48.172Z,16.31
2022-10-31T13:55:36.896Z,16.32
2022-10-31T13:58:06.410Z,16.33
2022-10-31T14:00:37.076Z,16.26
2022-10-31T14:03:04.201Z,16.24
2022-10-31T14:05:36.231Z,16.10
2022-10-31T14:08:07.322Z,16.06
2022-10-31T14:10:39.763Z,16.06
2022-10-31T14:13:15.115Z,16.19
2022-10-31T14:15:53.059Z,15.96
2022-10-31T14:18:26.128Z,15.98
2022-10-31T14:20:52.718Z,15.94
2022-10-31T14:23:31.763Z,15.97
2022-10-31T14:26:32.331Z,15.84
2022-10-31T14:29:00.429Z,15.73
2022-10-31T14:31:38.948Z,15.76
2022-10-31T14:34:21.622Z,15.67
2022-10-31T14:37:04.393Z,15.58
2022-10-31T14:39:39.776Z,15.51
2022-10-31T14:42:25.581Z,15.65
2022-10-31T14:45:28.342Z,15.57
2022-10-31T14:48:13.386Z,15.67
2022-10-31T14:50:52.522Z,15.49
2022-10-31T14:53:21.720Z,15.49
2022-10-31T14:55:50.980Z,15.39
2022-10-31T14:58:39.491Z,15.37
2022-10-31T15:01:07.497Z,15.36
2022-10-31T15:03:36.244Z,15.29
2022-10-31T15:06:11.855Z,15.35
2022-10-31T15:08:52.714Z,15.32
2022-10-31T15:11:25.761Z,15.20
2022-10-31T15:14:00.943Z,15.21
2022-10-31T15:16:42.682Z,15.08
2022-10-31T15:19:15.244Z,15.03
2022-10-31T15:21:45.948Z,15.14
2022-10-31T15:24:16.794Z,15.05
2022-10-31T15:26:47.249Z,14.96
2022-10-31T15:29:19.526Z,14.93
2022-10-31T15:31:54.987Z,14.92
2022-10-31T15:34:40.480Z,14.91
2022-10-31T15:37:15.696Z,14.81
2022-10-31T15:39:43.541Z,14.76
2022-10-31T15:42:23.425Z,14.74
2022-10-31T15:44:57.436Z,14.86
2022-10-31T15:47:27.543Z,14.77
2022-10-31T15:49:56.290Z,14.80
2022-10-31T15:52:28.453Z,14.78
2022-10-31T15:54:59.899Z,14.69
2022-10-31T15:57:29.687Z,14.64
2022-10-31T15:59:56.374Z,14.61
2022-10-31T16:02:28.040Z,14.59
2022-10-31T16:04:58.459Z,14.62
2022-10-31T16:07:26.206Z,14.58
2022-10-31T16:10:04.616Z,14.56
2022-10-31T16:12:43.537Z,14.49
2022-10-31T16:15:18.622Z,14.58
2022-10-31T16:17:47.473Z,14.50
2022-10-31T16:20:23.527Z,14.42
2022-10-31T16:22:52.296Z,14.57
2022-10-31T16:25:29.893Z,14.58
2022-10-31T16:28:05.414Z,14.57
2022-10-31T16:30:45.396Z,14.59
2022-10-31T16:33:36.903Z,14.58
2022-10-31T16:36:35.403Z,14.43
2022-10-31T16:39:03.400Z,14.52
2022-10-31T16:41:29.849Z,14.52
2022-10-31T16:43:56.975Z,14.50
2022-10-31T16:46:26.514Z,14.61
2022-10-31T16:48:53.944Z,14.47
2022-10-31T16:51:21.384Z,14.52
2022-10-31T16:53:47.970Z,14.41
2022-10-31T16:56:24.741Z,14.32
2022-10-31T16:58:51.428Z,14.43
2022-10-31T17:01:18.212Z,14.56
2022-10-31T17:03:44.761Z,14.39
2022-10-31T17:06:14.835Z,14.31
2022-10-31T17:08:41.875Z,14.42
2022-10-31T17:11:19.743Z,14.40
2022-10-31T17:13:46.429Z,14.48
2022-10-31T17:16:14.906Z,14.41
2022-10-31T17:18:43.663Z,14.43
2022-10-31T17:21:18.408Z,14.49
2022-10-31T17:23:45.021Z,14.45
2022-10-31T17:26:11.539Z,14.41
2022-10-31T17:28:38.035Z,14.38
2022-10-31T17:31:04.564Z,14.49
2022-10-31T17:33:31.035Z,14.45
2022-10-31T17:35:57.498Z,14.48
2022-10-31T17:38:24.087Z,14.38
2022-10-31T17:40:50.694Z,14.42
2022-10-31T17:43:17.164Z,14.35
2022-10-31T17:45:43.652Z,14.29
2022-10-31T17:48:12.458Z,14.27
2022-10-31T17:50:39.105Z,14.27
2022-10-31T17:53:05.616Z,14.25
2022-10-31T17:55:36.099Z,14.26
2022-10-31T17:58:04.063Z,14.26
2022-10-31T18:00:30.564Z,14.23
2022-10-31T18:02:57.407Z,14.41
2022-10-31T18:05:23.869Z,14.41
2022-10-31T18:07:51.112Z,14.35
2022-10-31T18:10:18.137Z,14.27
2022-10-31T18:12:44.599Z,14.30
2022-10-31T18:15:11.222Z,14.30
2022-10-31T18:17:41.004Z,14.32
2022-10-31T18:20:09.698Z,14.26
2022-10-31T18:22:36.170Z,14.36
2022-10-31T18:25:03.442Z,14.24
2022-10-31T18:27:29.827Z,14.22
2022-10-31T18:29:56.311Z,14.30
2022-10-31T18:32:22.943Z,14.22
2022-10-31T18:34:49.533Z,14.31
2022-10-31T18:37:16.098Z,14.19
2022-10-31T18:39:42.564Z,14.21
2022-10-31T18:42:08.954Z,14.18
2022-10-31T18:44:35.450Z,14.09
2022-10-31T18:47:02.201Z,14.17
2022-10-31T18:49:32.546Z,14.20
2022-10-31T18:51:59.770Z,14.15
2022-10-31T18:54:26.488Z,14.03
2022-10-31T18:56:53.031Z,13.96
2022-10-31T18:59:19.581Z,13.98
2022-10-31T19:01:46.690Z,13.97
2022-10-31T19:04:13.393Z,13.98
2022-10-31T19:06:40.052Z,13.96
2022-10-31T19:09:09.483Z,14.00
2022-10-31T19:11:37.001Z,13.91
2022-10-31T19:14:03.633Z,14.01
2022-10-31T19:16:30.598Z,13.91
2022-10-31T19:18:58.522Z,14.13
2022-10-31T19:21:25.023Z,14.04
2022-10-31T19:23:53.687Z,14.00
2022-10-31T19:26:20.639Z,13.96
2022-10-31T19:28:47.668Z,14.04
2022-10-31T19:31:14.328Z,14.00
2022-10-31T19:33:40.772Z,13.92
2022-10-31T19:36:13.231Z,13.88
2022-10-31T19:38:42.044Z,13.92
2022-10-31T19:41:11.654Z,13.86
2022-10-31T19:43:38.978Z,13.92
2022-10-31T19:46:06.720Z,13.88
2022-10-31T19:48:38.087Z,13.84
2022-10-31T19:51:10.782Z,13.94
2022-10-31T19:53:38.499Z,13.89
2022-10-31T19:56:10.423Z,14.00
2022-10-31T19:58:36.897Z,13.93
2022-10-31T20:01:11.487Z,14.04
2022-10-31T20:03:39.364Z,14.11
2022-10-31T20:06:06.779Z,14.09
2022-10-31T20:08:39.530Z,14.00
2022-10-31T20:11:06.233Z,13.93
2022-10-31T20:13:33.649Z,14.06
2022-10-31T20:16:03.401Z,13.92
2022-10-31T20:18:30.030Z,13.97
2022-10-31T20:21:05.015Z,13.94
2022-10-31T20:23:32.261Z,13.83
2022-10-31T20:25:58.839Z,13.81
2022-10-31T20:28:25.510Z,13.74
2022-10-31T20:30:52.463Z,13.85
2022-10-31T20:33:19.024Z,13.99
2022-10-31T20:35:45.808Z,13.81
2022-10-31T20:38:12.491Z,13.75
2022-10-31T20:40:39.090Z,13.78
2022-10-31T20:43:05.796Z,13.86
2022-10-31T20:45:32.569Z,13.76
2022-10-31T20:47:59.679Z,13.83
2022-10-31T20:50:27.649Z,13.86
2022-10-31T20:53:03.565Z,13.78
2022-10-31T20:55:30.205Z,13.92
2022-10-31T20:57:57.534Z,13.78
2022-10-31T21:00:24.216Z,13.72
2022-10-31T21:02:50.732Z,13.78
2022-10-31T21:05:17.246Z,13.73
2022-10-31T21:07:43.697Z,13.71
2022-10-31T21:10:14.837Z,13.69
2022-10-31T21:12:43.972Z,13.88
2022-10-31T21:15:12.037Z,13.82
2022-10-31T21:17:38.564Z,13.75
2022-10-31T21:20:06.753Z,13.68
2022-10-31T21:22:33.845Z,13.67
2022-10-31T21:25:00.479Z,13.62
2022-10-31T21:27:27.995Z,13.72
2022-10-31T21:29:54.544Z,13.63
2022-10-31T21:32:21.064Z,13.61
2022-10-31T21:34:50.062Z,13.53
2022-10-31T21:37:16.803Z,13.55
2022-10-31T21:39:46.905Z,13.52
2022-10-31T21:42:20.512Z,13.49
2022-10-31T21:44:49.882Z,13.55
2022-10-31T21:47:17.043Z,13.49
2022-10-31T21:49:44.068Z,13.42
2022-10-31T21:52:10.914Z,13.43
2022-10-31T21:54:37.630Z,13.41
2022-10-31T21:57:04.366Z,13.30
2022-10-31T21:59:31.012Z,13.32
2022-10-31T22:01:59.616Z,13.25
2022-10-31T22:04:27.436Z,13.24
2022-10-31T22:06:54.223Z,13.18
2022-10-31T22:09:23.139Z,13.14
2022-10-31T22:11:49.874Z,13.16
2022-10-31T22:14:16.435Z,13.11
2022-10-31T22:16:43.186Z,13.07
2022-10-31T22:19:12.279Z,13.04
2022-10-31T22:21:44.825Z,12.98
2022-10-31T22:24:12.382Z,12.97
2022-10-31T22:26:39.993Z,12.96
2022-10-31T22:29:10.749Z,12.95
2022-10-31T22:31:42.554Z,12.95
2022-10-31T22:34:09.937Z,12.92
2022-10-31T22:36:37.715Z,12.90
2022-10-31T22:39:04.847Z,12.90
2022-10-31T22:41:33.392Z,12.90
2022-10-31T22:44:00.516Z,12.90
2022-10-31T22:46:30.663Z,12.86
2022-10-31T22:49:00.515Z,12.83
2022-10-31T22:51:29.941Z,12.90
2022-10-31T22:53:57.281Z,12.84
2022-10-31T22:56:26.516Z,12.76
2022-10-31T22:58:54.166Z,12.72
2022-10-31T23:01:23.414Z,12.67
2022-10-31T23:03:50.773Z,12.70
2022-10-31T23:06:20.379Z,12.65
2022-10-31T23:08:47.686Z,12.62
2022-10-31T23:11:25.332Z,12.59
2022-10-31T23:14:10.489Z,12.56
2022-10-31T23:17:02.647Z,12.48
2022-10-31T23:19:30.392Z,12.45
2022-10-31T23:22:02.545Z,12.38
2022-10-31T23:24:33.927Z,12.40
2022-10-31T23:27:11.372Z,12.37
2022-10-31T23:29:39.565Z,12.32
2022-10-31T23:32:32.472Z,12.32
2022-10-31T23:35:02.389Z,12.28
2022-10-31T23:37:31.143Z,12.37
2022-10-31T23:39:58.004Z,12.29
2022-10-31T23:42:25.708Z,12.24
2022-10-31T23:44:52.821Z,12.24
2022-10-31T23:47:20.953Z,12.21
2022-10-31T23:49:47.960Z,12.12
2022-10-31T23:52:15.888Z,12.11
2022-10-31T23:54:42.539Z,12.09
2022-10-31T23:57:11.261Z,12.11
2022-10-31T23:59:37.804Z,12.05
